Terminal Aerodrome Forecast
Issued by NWS

Home | Current Version | Previous Version | Text Only | Print | Product List | Glossary On
Versions: 1 2 3 4 5 6 7 8 9 10 11 12
000
FTPA31 PHFO 271735
TAFHJH
TAF
PHJH 271735Z 2718/2818 05012KT P6SM FEW030 SCT045
     FM272000 05016G24KT P6SM SCT030 BKN045
     FM280600 05010G18KT P6SM FEW030 SCT045
     FM281200 05006KT P6SM FEW030 SCT045=

USA.gov is the U.S. government's official web portal to all federal, state and local government web resources and services.